Slotergracht — PDBP — position and weather

sailwx.info

Track history (hours):
 
Tides and Currents Weather Stations Pressure Air Temp Water Temp Dewpoint Dewpoint Depression Visibility Wind Speed Wind Dir Waves Ship Positions

Slotergracht

Last reported at 2016-Aug-20 13:33 UTC. Time now 2016-Aug-28 00:30 UTC.
Position N 49°46' W 003°38'.

Length 168 m; beam 25 m.

Type: Cargo ship. MMSI: 246456000.

Date/timePositionNaut miles runAvg speedWind from/ knotsBaromVisibWave heightAir tempDewpointWater temp
2016-Aug-20 13:33N 49°46' W 003°38'1212.5
2016-Aug-20 12:34N 49°52' W 003°22'1211.6
2016-Aug-20 11:33N 49°58' W 003°06'1010.5
2016-Aug-20 10:34N 50°01' W 002°50'9 9.0
2016-Aug-20 09:33N 50°03' W 002°36'6310.4
2016-Aug-20 03:33N 50°31' W 001°09'1212.1
2016-Aug-20 02:33N 50°40' W 000°57'1111.0
2016-Aug-20 01:34N 50°46' W 001°12'10 9.9
2016-Aug-20 00:33N 50°53' W 001°23'2 1.9
2016-Aug-19 23:33N 50°54' W 001°25'0 0.0
2016-Aug-19 22:30N 50°54' W 001°25'0 0.0
2016-Aug-19 21:27N 50°54' W 001°25'0 0.0
2016-Aug-19 17:27N 50°54' W 001°25'0 0.0
2016-Aug-19 15:33N 50°54' W 001°25'0 0.0
2016-Aug-19 14:33N 50°54' W 001°25'0 0.0
2016-Aug-19 13:21N 50°54' W 001°25'0 0.0
2016-Aug-19 12:33N 50°54' W 001°25'0 0.0
2016-Aug-19 11:26N 50°54' W 001°25'0 0.0
2016-Aug-19 09:20N 50°54' W 001°25'0 0.0
2016-Aug-19 08:08N 50°54' W 001°25'0 0.0
2016-Aug-19 07:14N 50°54' W 001°25'0 0.0
2016-Aug-19 01:23N 50°54' W 001°25'0 0.0
2016-Aug-18 23:20N 50°54' W 001°25'0 0.0
2016-Aug-18 22:32N 50°54' W 001°25'0 0.1
2016-Aug-18 21:32N 50°54' W 001°25'7 7.1
2016-Aug-18 20:34N 50°49' W 001°18'1212.2
2016-Aug-18 19:34N 50°43' W 001°00'1111.5
2016-Aug-18 18:33N 50°37' W 000°45'1616.0
2016-Aug-18 17:33N 50°34' W 000°20'1717.3
2016-Aug-18 16:33N 50°34' E 000°07'1818.2
2016-Aug-18 15:33N 50°39' E 000°35'1817.5
2016-Aug-18 14:32N 50°49' E 000°57'1616.1
2016-Aug-18 13:33N 50°59' E 001°17'1514.6
2016-Aug-18 12:33N 51°08' E 001°35'1514.6
2016-Aug-18 11:33N 51°18' E 001°52'1616.5
2016-Aug-18 10:33N 51°32' E 002°07'1818.1
2016-Aug-18 09:33N 51°46' E 002°25'1918.8
2016-Aug-18 08:33N 52°01' E 002°44'1918.7
2016-Aug-18 07:34N 52°15' E 003°03'1818.1
2016-Aug-18 06:33N 52°30' E 003°21'1917.1
2016-Aug-18 05:28N 52°45' E 003°40'1516.2
2016-Aug-18 04:32N 52°56' E 003°56'1615.8
2016-Aug-18 03:33N 53°06' E 004°15'1515.3
2016-Aug-18 02:33N 53°19' E 004°30'1616.0
2016-Aug-18 01:32N 53°31' E 004°49'1818.1
2016-Aug-18 00:33N 53°37' E 005°17'1818.1
2016-Aug-17 23:33N 53°42' E 005°46'1414.3
2016-Aug-17 22:33N 53°43' E 006°10'1413.6
2016-Aug-17 21:34N 53°37' E 006°30'1414.1
2016-Aug-17 20:33N 53°29' E 006°50'2 1.9
2016-Aug-17 19:31N 53°27' E 006°50'0 0.0
2016-Aug-17 18:31N 53°27' E 006°50'0 0.0
2016-Aug-17 17:31N 53°27' E 006°50'0 0.0
2016-Aug-17 16:31N 53°27' E 006°50'0 0.0
2016-Aug-17 15:31N 53°27' E 006°50'0 0.0
2016-Aug-17 14:31N 53°27' E 006°50'0 0.0
2016-Aug-17 13:28N 53°27' E 006°50'0 0.0
2016-Aug-17 12:31N 53°27' E 006°50'0 0.0
2016-Aug-17 11:31N 53°27' E 006°50'0 0.0
2016-Aug-17 10:31N 53°27' E 006°50'0 0.0
2016-Aug-17 09:31N 53°27' E 006°50'0 0.0
2016-Aug-17 08:31N 53°27' E 006°50'0 0.0
2016-Aug-17 07:32N 53°27' E 006°50'0 0.0
2016-Aug-17 06:31N 53°27' E 006°50'0 0.0
2016-Aug-17 05:31N 53°27' E 006°50'0 0.0
2016-Aug-17 04:28N 53°27' E 006°50'0 0.0
2016-Aug-17 03:31N 53°27' E 006°50'0 0.0
2016-Aug-17 02:31N 53°27' E 006°50'0 0.0
2016-Aug-17 01:31N 53°27' E 006°50'0 0.0
2016-Aug-17 00:31N 53°27' E 006°50'0 0.0
2016-Aug-16 23:31N 53°27' E 006°50'0 0.0
2016-Aug-16 22:31N 53°27' E 006°50'0 0.0
2016-Aug-16 21:31N 53°27' E 006°50'0 0.0
2016-Aug-16 20:31N 53°27' E 006°50'0 0.0
2016-Aug-16 19:31N 53°27' E 006°50'0 0.0
2016-Aug-16 18:31N 53°27' E 006°50'0 0.0
2016-Aug-16 17:31N 53°27' E 006°50'0 0.0
2016-Aug-16 16:31N 53°27' E 006°50'0 0.0
2016-Aug-16 15:31N 53°27' E 006°50'0 0.0
2016-Aug-16 14:31N 53°27' E 006°50'0 0.0
2016-Aug-16 13:31N 53°27' E 006°50'0 0.0
2016-Aug-16 12:31N 53°27' E 006°50'0 0.0
2016-Aug-16 11:34N 53°27' E 006°50'0 0.0
2016-Aug-16 10:33N 53°27' E 006°50'0 0.0
2016-Aug-16 09:33N 53°27' E 006°50'0 0.0
2016-Aug-16 08:33N 53°27' E 006°50'5 4.7
2016-Aug-16 07:33N 53°31' E 006°46'3110.2
2016-Aug-16 04:32N 53°58' E 006°21'1917.1
2016-Aug-16 03:27N 54°17' E 006°22'3517.5
2016-Aug-16 01:27N 54°51' E 006°33'1617.5
2016-Aug-16 00:33N 55°06' E 006°36'1717.3
2016-Aug-15 23:33N 55°23' E 006°43'7117.5
2016-Aug-15 19:32N 56°29' E 007°30'1817.7
2016-Aug-15 18:33N 56°45' E 007°42'1717.7
2016-Aug-15 17:33N 57°01' E 007°53'7316.9
2016-Aug-15 13:13N 57°41' E 009°48'1217.6
2016-Aug-15 12:33N 57°45' E 010°09'1817.5
2016-Aug-15 11:33N 57°47' E 010°41'8 6.8
2016-Aug-15 10:22N 57°40' E 010°36'0 0.1
2016-Aug-15 09:28N 57°40' E 010°36'0 0.0
2016-Aug-15 08:28N 57°40' E 010°36'0 0.0
2016-Aug-15 07:28N 57°40' E 010°36'0 0.0
2016-Aug-15 06:31N 57°40' E 010°36'0 0.0
2016-Aug-15 04:31N 57°40' E 010°36'0 0.1
2016-Aug-15 03:33N 57°40' E 010°36'1111.0
2016-Aug-15 02:33N 57°36' E 010°55'1313.0
2016-Aug-15 01:33N 57°31' E 011°18'1212.5
2016-Aug-15 00:33N 57°21' E 011°31'1313.1
2016-Aug-14 23:32N 57°08' E 011°39'1313.4
2016-Aug-14 22:33N 56°56' E 011°48'1313.4
2016-Aug-14 21:33N 56°43' E 011°52'4514.1
2016-Aug-14 18:20N 56°05' E 011°08'1113.5
2016-Aug-14 17:33N 55°56' E 010°58'3514.2
2016-Aug-14 15:05N 55°21' E 011°02'714.2
2016-Aug-14 14:34N 55°13' E 011°06'1313.3
2016-Aug-14 13:33N 55°01' E 010°59'1312.8
2016-Aug-14 12:33N 54°49' E 010°50'1111.0
2016-Aug-14 11:34N 54°38' E 010°54'1313.2
2016-Aug-14 10:33N 54°34' E 011°16'1313.2
2016-Aug-14 09:33N 54°29' E 011°37'1312.8
2016-Aug-14 08:33N 54°26' E 011°58'1110.9
2016-Aug-14 07:33N 54°32' E 012°14'1312.9
2016-Aug-14 06:33N 54°41' E 012°30'4414.6
2016-Aug-14 03:31N 54°59' E 013°40'1414.2
2016-Aug-14 02:33N 55°04' E 014°03'1514.5
2016-Aug-14 01:33N 55°15' E 014°19'1514.5
2016-Aug-14 00:33N 55°26' E 014°35'1414.1
2016-Aug-13 23:33N 55°34' E 014°56'  
Track history (hours):
 
Tides and Currents Weather Stations Pressure Air Temp Water Temp Dewpoint Dewpoint Depression Visibility Wind Speed Wind Dir Waves Ship Positions

Slotergracht

Last reported at 2016-Aug-20 13:33 UTC. Time now 2016-Aug-28 00:30 UTC.
Position N 49°46' W 003°38'.

Length 168 m; beam 25 m.

Type: Cargo ship. MMSI: 246456000.

Date/timePositionNaut miles runAvg speedWind from/ knotsBaromVisibWave heightAir tempDewpointWater temp
2016-Aug-20 13:33N 49°46' W 003°38'1212.5
2016-Aug-20 12:34N 49°52' W 003°22'1211.6
2016-Aug-20 11:33N 49°58' W 003°06'1010.5
2016-Aug-20 10:34N 50°01' W 002°50'9 9.0
2016-Aug-20 09:33N 50°03' W 002°36'6310.4
2016-Aug-20 03:33N 50°31' W 001°09'1212.1
2016-Aug-20 02:33N 50°40' W 000°57'1111.0
2016-Aug-20 01:34N 50°46' W 001°12'10 9.9
2016-Aug-20 00:33N 50°53' W 001°23'2 1.9
2016-Aug-19 23:33N 50°54' W 001°25'0 0.0
2016-Aug-19 22:30N 50°54' W 001°25'0 0.0
2016-Aug-19 21:27N 50°54' W 001°25'0 0.0
2016-Aug-19 17:27N 50°54' W 001°25'0 0.0
2016-Aug-19 15:33N 50°54' W 001°25'0 0.0
2016-Aug-19 14:33N 50°54' W 001°25'0 0.0
2016-Aug-19 13:21N 50°54' W 001°25'0 0.0
2016-Aug-19 12:33N 50°54' W 001°25'0 0.0
2016-Aug-19 11:26N 50°54' W 001°25'0 0.0
2016-Aug-19 09:20N 50°54' W 001°25'0 0.0
2016-Aug-19 08:08N 50°54' W 001°25'0 0.0
2016-Aug-19 07:14N 50°54' W 001°25'0 0.0
2016-Aug-19 01:23N 50°54' W 001°25'0 0.0
2016-Aug-18 23:20N 50°54' W 001°25'0 0.0
2016-Aug-18 22:32N 50°54' W 001°25'0 0.1
2016-Aug-18 21:32N 50°54' W 001°25'7 7.1
2016-Aug-18 20:34N 50°49' W 001°18'1212.2
2016-Aug-18 19:34N 50°43' W 001°00'1111.5
2016-Aug-18 18:33N 50°37' W 000°45'1616.0
2016-Aug-18 17:33N 50°34' W 000°20'1717.3
2016-Aug-18 16:33N 50°34' E 000°07'1818.2
2016-Aug-18 15:33N 50°39' E 000°35'1817.5
2016-Aug-18 14:32N 50°49' E 000°57'1616.1
2016-Aug-18 13:33N 50°59' E 001°17'1514.6
2016-Aug-18 12:33N 51°08' E 001°35'1514.6
2016-Aug-18 11:33N 51°18' E 001°52'1616.5
2016-Aug-18 10:33N 51°32' E 002°07'1818.1
2016-Aug-18 09:33N 51°46' E 002°25'1918.8
2016-Aug-18 08:33N 52°01' E 002°44'1918.7
2016-Aug-18 07:34N 52°15' E 003°03'1818.1
2016-Aug-18 06:33N 52°30' E 003°21'1917.1
2016-Aug-18 05:28N 52°45' E 003°40'1516.2
2016-Aug-18 04:32N 52°56' E 003°56'1615.8
2016-Aug-18 03:33N 53°06' E 004°15'1515.3
2016-Aug-18 02:33N 53°19' E 004°30'1616.0
2016-Aug-18 01:32N 53°31' E 004°49'1818.1
2016-Aug-18 00:33N 53°37' E 005°17'1818.1
2016-Aug-17 23:33N 53°42' E 005°46'1414.3
2016-Aug-17 22:33N 53°43' E 006°10'1413.6
2016-Aug-17 21:34N 53°37' E 006°30'1414.1
2016-Aug-17 20:33N 53°29' E 006°50'2 1.9
2016-Aug-17 19:31N 53°27' E 006°50'0 0.0
2016-Aug-17 18:31N 53°27' E 006°50'0 0.0
2016-Aug-17 17:31N 53°27' E 006°50'0 0.0
2016-Aug-17 16:31N 53°27' E 006°50'0 0.0
2016-Aug-17 15:31N 53°27' E 006°50'0 0.0
2016-Aug-17 14:31N 53°27' E 006°50'0 0.0
2016-Aug-17 13:28N 53°27' E 006°50'0 0.0
2016-Aug-17 12:31N 53°27' E 006°50'0 0.0
2016-Aug-17 11:31N 53°27' E 006°50'0 0.0
2016-Aug-17 10:31N 53°27' E 006°50'0 0.0
2016-Aug-17 09:31N 53°27' E 006°50'0 0.0
2016-Aug-17 08:31N 53°27' E 006°50'0 0.0
2016-Aug-17 07:32N 53°27' E 006°50'0 0.0
2016-Aug-17 06:31N 53°27' E 006°50'0 0.0
2016-Aug-17 05:31N 53°27' E 006°50'0 0.0
2016-Aug-17 04:28N 53°27' E 006°50'0 0.0
2016-Aug-17 03:31N 53°27' E 006°50'0 0.0
2016-Aug-17 02:31N 53°27' E 006°50'0 0.0
2016-Aug-17 01:31N 53°27' E 006°50'0 0.0
2016-Aug-17 00:31N 53°27' E 006°50'0 0.0
2016-Aug-16 23:31N 53°27' E 006°50'0 0.0
2016-Aug-16 22:31N 53°27' E 006°50'0 0.0
2016-Aug-16 21:31N 53°27' E 006°50'0 0.0
2016-Aug-16 20:31N 53°27' E 006°50'0 0.0
2016-Aug-16 19:31N 53°27' E 006°50'0 0.0
2016-Aug-16 18:31N 53°27' E 006°50'0 0.0
2016-Aug-16 17:31N 53°27' E 006°50'0 0.0
2016-Aug-16 16:31N 53°27' E 006°50'0 0.0
2016-Aug-16 15:31N 53°27' E 006°50'0 0.0
2016-Aug-16 14:31N 53°27' E 006°50'0 0.0
2016-Aug-16 13:31N 53°27' E 006°50'0 0.0
2016-Aug-16 12:31N 53°27' E 006°50'0 0.0
2016-Aug-16 11:34N 53°27' E 006°50'0 0.0
2016-Aug-16 10:33N 53°27' E 006°50'0 0.0
2016-Aug-16 09:33N 53°27' E 006°50'0 0.0
2016-Aug-16 08:33N 53°27' E 006°50'5 4.7
2016-Aug-16 07:33N 53°31' E 006°46'3110.2
2016-Aug-16 04:32N 53°58' E 006°21'1917.1
2016-Aug-16 03:27N 54°17' E 006°22'3517.5
2016-Aug-16 01:27N 54°51' E 006°33'1617.5
2016-Aug-16 00:33N 55°06' E 006°36'1717.3
2016-Aug-15 23:33N 55°23' E 006°43'7117.5
2016-Aug-15 19:32N 56°29' E 007°30'1817.7
2016-Aug-15 18:33N 56°45' E 007°42'1717.7
2016-Aug-15 17:33N 57°01' E 007°53'7316.9
2016-Aug-15 13:13N 57°41' E 009°48'1217.6
2016-Aug-15 12:33N 57°45' E 010°09'1817.5
2016-Aug-15 11:33N 57°47' E 010°41'8 6.8
2016-Aug-15 10:22N 57°40' E 010°36'0 0.1
2016-Aug-15 09:28N 57°40' E 010°36'0 0.0
2016-Aug-15 08:28N 57°40' E 010°36'0 0.0
2016-Aug-15 07:28N 57°40' E 010°36'0 0.0
2016-Aug-15 06:31N 57°40' E 010°36'0 0.0
2016-Aug-15 04:31N 57°40' E 010°36'0 0.1
2016-Aug-15 03:33N 57°40' E 010°36'1111.0
2016-Aug-15 02:33N 57°36' E 010°55'1313.0
2016-Aug-15 01:33N 57°31' E 011°18'1212.5
2016-Aug-15 00:33N 57°21' E 011°31'1313.1
2016-Aug-14 23:32N 57°08' E 011°39'1313.4
2016-Aug-14 22:33N 56°56' E 011°48'1313.4
2016-Aug-14 21:33N 56°43' E 011°52'4514.1
2016-Aug-14 18:20N 56°05' E 011°08'1113.5
2016-Aug-14 17:33N 55°56' E 010°58'3514.2
2016-Aug-14 15:05N 55°21' E 011°02'714.2
2016-Aug-14 14:34N 55°13' E 011°06'1313.3
2016-Aug-14 13:33N 55°01' E 010°59'1312.8
2016-Aug-14 12:33N 54°49' E 010°50'1111.0
2016-Aug-14 11:34N 54°38' E 010°54'1313.2
2016-Aug-14 10:33N 54°34' E 011°16'1313.2
2016-Aug-14 09:33N 54°29' E 011°37'1312.8
2016-Aug-14 08:33N 54°26' E 011°58'1110.9
2016-Aug-14 07:33N 54°32' E 012°14'1312.9
2016-Aug-14 06:33N 54°41' E 012°30'4414.6
2016-Aug-14 03:31N 54°59' E 013°40'1414.2
2016-Aug-14 02:33N 55°04' E 014°03'1514.5
2016-Aug-14 01:33N 55°15' E 014°19'1514.5
2016-Aug-14 00:33N 55°26' E 014°35'1414.1
2016-Aug-13 23:33N 55°34' E 014°56'  

Dump ship's entire track history